Time;durP1;ratioP1;P1;durP2;ratioP2;P2;SDS_P1;SDS_P2;PMS_P1;PMS_P2;Temp;Humidity;BMP_temperature;BMP_pressure;BME280_temperature;BME280_humidity;BME280_pressure;Samples;Min_cycle;Max_cycle;Signal;HPM_P1;HPM_P2
2022/06/30 00:02:22;;;;;;;7.60;5.63;;;20.60;99.90;;;;;;5134710;27;20530;-57
2022/06/30 00:04:49;;;;;;;6.50;5.35;;;20.50;99.90;;;;;;5083432;27;20042;-56
2022/06/30 00:07:15;;;;;;;7.15;5.78;;;20.50;99.90;;;;;;5133561;27;20082;-56
2022/06/30 00:09:41;;;;;;;5.72;5.13;;;20.50;99.90;;;;;;5125103;27;20092;-54
2022/06/30 00:12:08;;;;;;;5.47;4.75;;;20.50;99.90;;;;;;5099507;27;20058;-56
2022/06/30 00:14:34;;;;;;;7.40;4.88;;;20.50;99.90;;;;;;5132426;27;20042;-55
2022/06/30 00:17:00;;;;;;;6.30;4.88;;;20.50;99.90;;;;;;5136570;27;20075;-56
2022/06/30 00:19:26;;;;;;;5.80;4.68;;;20.50;99.90;;;;;;5132353;27;20050;-51
2022/06/30 00:21:52;;;;;;;5.63;4.97;;;20.40;99.90;;;;;;5130926;27;20042;-49
2022/06/30 00:24:18;;;;;;;7.15;5.05;;;20.40;99.90;;;;;;5121669;27;20047;-53
2022/06/30 00:26:44;;;;;;;6.45;4.70;;;20.30;99.90;;;;;;5113325;27;20154;-60
2022/06/30 00:29:11;;;;;;;7.88;4.82;;;20.20;99.90;;;;;;5086388;27;20416;-56
2022/06/30 00:31:38;;;;;;;6.75;4.72;;;20.20;99.90;;;;;;5119957;27;20446;-53
2022/06/30 00:34:04;;;;;;;5.63;4.63;;;20.10;99.90;;;;;;5137578;27;20047;-53
2022/06/30 00:36:30;;;;;;;4.85;4.35;;;20.10;99.90;;;;;;5137003;27;20043;-51
2022/06/30 00:38:56;;;;;;;4.88;4.10;;;20.00;99.90;;;;;;5095639;27;20466;-51
2022/06/30 00:41:22;;;;;;;5.88;4.50;;;19.90;99.90;;;;;;5138716;27;20102;-52
2022/06/30 00:43:49;;;;;;;6.03;4.70;;;19.90;99.90;;;;;;5069417;27;20035;-56
2022/06/30 00:46:16;;;;;;;7.00;4.90;;;19.80;99.90;;;;;;5087439;27;20459;-52
2022/06/30 00:48:44;;;;;;;7.03;4.20;;;19.80;99.90;;;;;;5101002;27;20042;-55
2022/06/30 00:51:10;;;;;;;5.95;4.65;;;19.70;99.90;;;;;;5134156;27;20417;-54
2022/06/30 00:53:39;;;;;;;5.07;4.45;;;19.70;99.90;;;;;;5135422;27;20051;-54
2022/06/30 00:56:09;;;;;;;5.32;4.82;;;19.70;99.90;;;;;;5121954;27;20049;-51
2022/06/30 00:58:40;;;;;;;9.23;3.95;;;19.70;99.90;;;;;;5114495;27;20043;-54
2022/06/30 01:01:11;;;;;;;5.35;4.55;;;19.60;99.90;;;;;;5148134;27;20103;-53
2022/06/30 01:03:37;;;;;;;5.57;4.93;;;19.50;99.90;;;;;;5144505;27;20146;-55
2022/06/30 01:06:05;;;;;;;7.22;4.88;;;19.50;99.90;;;;;;5143652;27;20640;-53
2022/06/30 01:08:33;;;;;;;5.57;4.15;;;19.50;99.90;;;;;;5119789;27;20126;-53
2022/06/30 01:13:45;;;;;;;5.00;4.57;;;19.40;99.90;;;;;;5137980;27;20480;-51
2022/06/30 01:16:11;;;;;;;5.65;4.40;;;19.40;99.90;;;;;;5142880;27;20057;-53
2022/06/30 01:18:38;;;;;;;4.88;4.38;;;19.30;99.90;;;;;;5141178;27;20108;-53
2022/06/30 01:21:04;;;;;;;8.13;4.93;;;19.30;99.90;;;;;;5117050;27;20141;-53
2022/06/30 01:23:30;;;;;;;6.00;4.90;;;19.30;99.90;;;;;;5146664;27;20045;-51
2022/06/30 01:25:56;;;;;;;5.70;4.45;;;19.20;99.90;;;;;;5115854;27;20542;-52
2022/06/30 01:28:22;;;;;;;5.40;4.75;;;19.20;99.90;;;;;;5140310;27;20556;-52
2022/06/30 01:30:48;;;;;;;5.95;4.70;;;19.20;99.90;;;;;;5119272;27;20052;-53
2022/06/30 01:33:15;;;;;;;4.93;4.43;;;19.20;99.90;;;;;;5137402;27;20657;-53
2022/06/30 01:35:41;;;;;;;6.50;4.80;;;19.20;99.90;;;;;;5099995;27;20050;-56
2022/06/30 01:38:07;;;;;;;5.70;4.30;;;19.10;99.90;;;;;;5134112;27;20042;-54
2022/06/30 01:40:35;;;;;;;6.55;3.88;;;19.10;99.90;;;;;;5116845;27;20050;-55
2022/06/30 01:43:06;;;;;;;6.53;4.07;;;19.10;99.90;;;;;;5087553;27;20103;-55
2022/06/30 01:45:33;;;;;;;5.60;4.63;;;19.10;99.90;;;;;;5134689;27;20565;-55
2022/06/30 01:47:59;;;;;;;5.93;4.57;;;19.10;99.90;;;;;;5099763;27;20051;-56
2022/06/30 01:50:28;;;;;;;5.85;4.38;;;19.10;99.90;;;;;;5140699;27;20054;-56
2022/06/30 01:52:54;;;;;;;7.60;4.50;;;19.00;99.90;;;;;;5115539;27;20816;-52
2022/06/30 01:55:20;;;;;;;6.70;4.05;;;19.00;99.90;;;;;;5115799;27;20054;-53
2022/06/30 01:57:46;;;;;;;5.60;4.88;;;19.00;99.90;;;;;;5136687;27;20050;-51
2022/06/30 02:00:16;;;;;;;8.23;4.68;;;19.00;99.90;;;;;;5112920;27;20115;-53
2022/06/30 02:02:42;;;;;;;6.32;4.32;;;19.00;99.90;;;;;;5112972;27;20034;-55
2022/06/30 02:05:09;;;;;;;6.85;4.68;;;19.00;99.90;;;;;;5122763;27;20034;-51
2022/06/30 02:07:36;;;;;;;9.25;4.60;;;19.00;99.90;;;;;;5100220;27;20402;-55
2022/06/30 02:10:07;;;;;;;6.85;5.20;;;18.90;99.90;;;;;;5140348;27;20121;-55
2022/06/30 02:12:46;;;;;;;5.95;4.35;;;18.90;99.90;;;;;;5131688;27;20699;-55
2022/06/30 02:15:24;;;;;;;8.45;4.80;;;18.90;99.90;;;;;;5131945;27;20038;-52
2022/06/30 02:17:52;;;;;;;7.50;4.75;;;18.80;99.90;;;;;;5132711;27;20117;-54
2022/06/30 02:20:23;;;;;;;8.93;4.60;;;18.80;99.90;;;;;;5122010;27;20045;-54
2022/06/30 02:23:00;;;;;;;8.20;4.32;;;18.80;99.90;;;;;;5102858;27;20509;-51
2022/06/30 02:25:28;;;;;;;5.78;4.43;;;18.80;99.90;;;;;;5128924;27;20076;-54
2022/06/30 02:27:55;;;;;;;7.80;4.80;;;18.70;99.90;;;;;;5116297;27;20053;-51
2022/06/30 02:30:21;;;;;;;7.65;5.30;;;18.70;99.90;;;;;;5115812;27;20051;-53
2022/06/30 02:32:48;;;;;;;6.35;4.50;;;18.60;99.90;;;;;;5138246;27;20051;-52
2022/06/30 02:35:14;;;;;;;6.20;4.57;;;18.60;99.90;;;;;;5101366;27;20614;-51
2022/06/30 02:37:40;;;;;;;8.45;4.53;;;18.60;99.90;;;;;;5133306;27;20079;-56
2022/06/30 02:40:07;;;;;;;5.63;4.57;;;18.60;99.90;;;;;;5131668;27;20038;-56
2022/06/30 02:42:33;;;;;;;5.22;4.45;;;18.60;99.90;;;;;;5116424;27;20758;-54
2022/06/30 02:44:59;;;;;;;7.13;4.78;;;18.50;99.90;;;;;;5101527;27;20505;-54
2022/06/30 02:47:34;;;;;;;6.70;4.88;;;18.50;99.90;;;;;;5138883;27;20035;-53
2022/06/30 02:50:03;;;;;;;6.07;4.75;;;18.50;99.90;;;;;;5111513;27;20099;-52
2022/06/30 02:52:33;;;;;;;7.38;4.28;;;18.50;99.90;;;;;;5116701;27;20046;-54
2022/06/30 02:55:00;;;;;;;6.07;4.32;;;18.50;99.90;;;;;;5119477;27;20054;-57
2022/06/30 02:57:27;;;;;;;6.22;4.50;;;18.40;99.90;;;;;;5131198;27;20065;-57
2022/06/30 02:59:53;;;;;;;6.20;5.28;;;18.40;99.90;;;;;;5137022;27;20468;-57
2022/06/30 03:02:19;;;;;;;5.90;5.22;;;18.40;99.90;;;;;;5119127;27;20047;-55
2022/06/30 03:04:45;;;;;;;7.47;5.05;;;18.40;99.90;;;;;;5117806;27;20045;-57
2022/06/30 03:07:12;;;;;;;6.20;4.90;;;18.40;99.90;;;;;;5136271;27;20049;-55
2022/06/30 03:09:38;;;;;;;6.47;4.65;;;18.30;99.90;;;;;;5122013;27;20122;-56
2022/06/30 03:12:04;;;;;;;6.22;5.30;;;18.30;99.90;;;;;;5142485;27;20109;-54
2022/06/30 03:14:30;;;;;;;6.97;5.00;;;18.30;99.90;;;;;;5116899;27;20518;-54
2022/06/30 03:16:56;;;;;;;5.35;4.45;;;18.30;99.90;;;;;;5133771;27;20054;-56
2022/06/30 03:19:23;;;;;;;5.85;5.10;;;18.30;99.90;;;;;;5131366;27;20046;-53
2022/06/30 03:21:49;;;;;;;6.15;4.60;;;18.30;99.90;;;;;;5138997;27;20134;-53
2022/06/30 03:24:15;;;;;;;8.38;4.80;;;18.20;99.90;;;;;;5141993;27;20038;-48
2022/06/30 03:26:44;;;;;;;6.63;5.03;;;18.30;99.90;;;;;;5106392;27;20038;-52
2022/06/30 03:29:10;;;;;;;7.20;4.40;;;18.20;99.90;;;;;;5127600;27;20047;-54
2022/06/30 03:31:37;;;;;;;10.77;4.82;;;18.20;99.90;;;;;;5147555;27;20088;-55
2022/06/30 03:34:03;;;;;;;5.75;4.55;;;18.20;99.90;;;;;;5117755;27;20118;-53
2022/06/30 03:36:29;;;;;;;6.55;4.32;;;18.20;99.90;;;;;;5138750;27;20510;-59
2022/06/30 03:38:56;;;;;;;6.07;4.60;;;18.20;99.90;;;;;;5115031;27;20071;-57
2022/06/30 03:41:22;;;;;;;5.32;4.57;;;18.20;99.90;;;;;;5098667;27;20489;-54
2022/06/30 03:43:48;;;;;;;6.85;5.07;;;18.10;99.90;;;;;;5148050;27;20077;-49
2022/06/30 03:46:14;;;;;;;5.63;4.22;;;18.10;99.90;;;;;;5143412;27;20049;-50
2022/06/30 03:48:41;;;;;;;5.72;4.53;;;18.10;99.90;;;;;;5121032;27;20042;-52
2022/06/30 03:51:08;;;;;;;7.78;4.88;;;18.10;99.90;;;;;;5084001;27;20373;-54
2022/06/30 03:53:35;;;;;;;7.47;5.13;;;18.10;99.90;;;;;;5104887;27;20046;-53
2022/06/30 03:56:01;;;;;;;6.25;5.03;;;18.10;99.90;;;;;;5139833;27;20054;-54
2022/06/30 03:58:27;;;;;;;5.72;4.88;;;18.10;99.90;;;;;;5137040;27;20051;-53
2022/06/30 04:00:53;;;;;;;6.95;5.30;;;18.10;99.90;;;;;;5121853;27;20066;-51
2022/06/30 04:03:19;;;;;;;6.20;4.85;;;18.10;99.90;;;;;;5121142;27;20081;-52
2022/06/30 04:05:45;;;;;;;6.00;4.97;;;18.10;99.90;;;;;;5120987;27;20042;-50
2022/06/30 04:08:11;;;;;;;5.60;4.75;;;18.10;99.90;;;;;;5122991;27;20093;-53
2022/06/30 04:10:37;;;;;;;7.05;4.72;;;18.10;99.90;;;;;;5117831;27;20049;-52
2022/06/30 04:13:04;;;;;;;7.32;5.35;;;18.10;99.90;;;;;;5120801;27;20066;-51
2022/06/30 04:15:30;;;;;;;5.88;4.70;;;18.10;99.90;;;;;;5083895;27;20081;-52
2022/06/30 04:17:57;;;;;;;9.27;4.78;;;18.20;99.90;;;;;;5118621;27;20129;-52
2022/06/30 04:20:23;;;;;;;8.30;5.15;;;18.20;99.90;;;;;;5102398;27;20038;-54
2022/06/30 04:22:51;;;;;;;7.30;5.00;;;18.20;99.90;;;;;;5138555;27;20035;-50
2022/06/30 04:25:18;;;;;;;7.28;5.50;;;18.20;99.90;;;;;;5123033;27;20523;-50
2022/06/30 04:27:56;;;;;;;6.38;5.00;;;18.30;99.90;;;;;;5109585;27;20038;-51
2022/06/30 04:33:07;;;;;;;5.65;5.07;;;18.30;99.90;;;;;;5141357;27;20047;-52
2022/06/30 04:35:34;;;;;;;6.45;5.63;;;18.40;99.90;;;;;;5103438;27;20087;-53
2022/06/30 04:38:01;;;;;;;6.70;5.18;;;18.40;99.90;;;;;;5144879;27;20477;-50
2022/06/30 04:43:12;;;;;;;6.10;4.80;;;18.50;99.90;;;;;;5137174;27;20560;-50
2022/06/30 04:45:38;;;;;;;5.70;5.05;;;18.50;99.90;;;;;;5122874;27;20039;-51
2022/06/30 04:48:05;;;;;;;6.70;5.68;;;18.60;99.90;;;;;;5120454;27;20050;-50
2022/06/30 04:50:31;;;;;;;7.03;5.22;;;18.60;99.90;;;;;;5116783;27;20512;-50
2022/06/30 04:52:57;;;;;;;8.10;5.68;;;18.70;99.90;;;;;;5141411;27;20052;-49
2022/06/30 04:55:23;;;;;;;8.48;5.55;;;18.70;99.90;;;;;;5138760;27;20499;-51
2022/06/30 04:57:50;;;;;;;6.18;5.35;;;18.80;99.90;;;;;;5112463;27;20058;-53
2022/06/30 05:00:16;;;;;;;8.20;5.47;;;18.80;99.90;;;;;;5141884;27;20538;-53
2022/06/30 05:02:42;;;;;;;6.13;5.18;;;18.90;99.90;;;;;;5119051;27;20042;-51
2022/06/30 05:05:09;;;;;;;7.60;5.47;;;18.90;99.90;;;;;;5136326;27;20038;-53
2022/06/30 05:07:35;;;;;;;6.90;5.65;;;18.90;99.90;;;;;;5116196;27;20081;-57
2022/06/30 05:10:03;;;;;;;7.75;5.60;;;19.00;99.90;;;;;;5137020;27;20489;-57
2022/06/30 05:12:29;;;;;;;7.18;5.68;;;19.20;99.90;;;;;;5141230;27;20549;-57
2022/06/30 05:14:55;;;;;;;6.93;5.20;;;19.50;99.90;;;;;;5084587;27;20051;-54
2022/06/30 05:17:24;;;;;;;8.00;5.75;;;19.90;99.90;;;;;;5082288;27;20065;-55
2022/06/30 05:19:50;;;;;;;5.93;5.10;;;20.10;99.90;;;;;;5119747;27;20051;-55
2022/06/30 05:22:17;;;;;;;9.93;5.50;;;20.20;99.90;;;;;;5132292;27;20054;-55
2022/06/30 05:27:28;;;;;;;6.30;5.22;;;20.80;99.90;;;;;;5137450;27;20471;-57
2022/06/30 05:29:55;;;;;;;6.22;5.57;;;20.80;99.90;;;;;;5136604;27;20045;-56
2022/06/30 05:32:21;;;;;;;6.70;5.82;;;21.00;99.90;;;;;;5112835;27;20070;-55
2022/06/30 05:34:47;;;;;;;5.57;4.95;;;21.10;99.90;;;;;;5113018;27;20053;-57
2022/06/30 05:37:14;;;;;;;6.07;5.07;;;21.10;99.90;;;;;;5113680;27;20109;-56
2022/06/30 05:39:40;;;;;;;6.63;5.07;;;21.20;99.90;;;;;;5111471;27;20419;-56
2022/06/30 05:42:06;;;;;;;5.68;4.97;;;21.30;99.90;;;;;;5108127;27;20107;-55
2022/06/30 05:44:32;;;;;;;6.00;4.93;;;21.50;99.90;;;;;;5095015;27;20463;-56
2022/06/30 05:46:58;;;;;;;6.55;5.28;;;21.60;99.90;;;;;;5112474;27;20046;-58
2022/06/30 05:49:25;;;;;;;8.30;5.22;;;21.80;99.90;;;;;;5131683;27;20530;-53
2022/06/30 05:51:52;;;;;;;10.63;5.80;;;21.90;99.90;;;;;;5127364;27;20062;-52
2022/06/30 05:54:19;;;;;;;8.57;5.25;;;21.80;99.90;;;;;;5126326;27;20134;-56
2022/06/30 05:56:45;;;;;;;6.57;5.28;;;21.80;99.90;;;;;;5130040;27;20514;-56
2022/06/30 05:59:12;;;;;;;6.20;5.18;;;21.90;99.90;;;;;;5127180;27;20086;-58
2022/06/30 06:01:38;;;;;;;6.05;5.20;;;22.00;99.90;;;;;;5124084;27;20042;-52
2022/06/30 06:04:05;;;;;;;6.72;5.55;;;22.00;99.90;;;;;;5111157;27;20495;-52
2022/06/30 06:06:31;;;;;;;8.70;5.53;;;22.00;99.90;;;;;;5102049;27;20045;-57
2022/06/30 06:08:57;;;;;;;6.30;5.70;;;22.20;99.90;;;;;;5115353;27;20073;-53
2022/06/30 06:11:23;;;;;;;6.35;5.50;;;22.30;99.90;;;;;;5103165;27;20081;-52
2022/06/30 06:13:49;;;;;;;7.68;6.57;;;22.30;99.90;;;;;;5139447;27;20438;-57
2022/06/30 06:16:16;;;;;;;8.70;7.18;;;22.20;99.90;;;;;;5136324;27;20050;-53
2022/06/30 06:18:42;;;;;;;9.85;8.85;;;22.70;99.90;;;;;;5117826;27;20367;-54
2022/06/30 06:21:08;;;;;;;8.32;7.47;;;23.00;99.90;;;;;;5132362;27;20043;-55
2022/06/30 06:23:34;;;;;;;8.50;7.65;;;23.00;99.90;;;;;;5095067;27;20046;-54
2022/06/30 06:26:00;;;;;;;24.88;22.48;;;23.10;99.90;;;;;;5120595;27;20046;-54
2022/06/30 06:31:10;;;;;;;10.13;9.07;;;23.50;99.90;;;;;;5100138;27;20043;-55
2022/06/30 06:33:38;;;;;;;14.02;12.00;;;23.60;99.90;;;;;;5092064;27;20047;-55
2022/06/30 06:36:05;;;;;;;12.15;10.98;;;23.70;99.90;;;;;;5138923;27;20035;-54
2022/06/30 06:38:31;;;;;;;10.27;6.60;;;23.80;99.90;;;;;;5134180;27;20232;-52
2022/06/30 06:40:57;;;;;;;9.88;8.90;;;23.80;99.90;;;;;;5112134;27;20042;-53
2022/06/30 06:43:23;;;;;;;9.23;7.50;;;23.90;99.90;;;;;;5113400;27;20515;-49
2022/06/30 06:45:49;;;;;;;9.95;6.15;;;24.10;99.90;;;;;;5134696;27;20385;-54
2022/06/30 06:48:15;;;;;;;7.65;5.88;;;24.20;99.90;;;;;;5095936;27;20146;-52
2022/06/30 06:50:42;;;;;;;9.63;8.68;;;24.30;99.90;;;;;;5131166;27;20634;-54
2022/06/30 06:53:08;;;;;;;6.85;6.05;;;24.30;99.90;;;;;;5090059;27;20130;-54
2022/06/30 06:55:34;;;;;;;7.25;6.55;;;24.60;99.90;;;;;;5130036;27;20484;-55
2022/06/30 06:58:00;;;;;;;18.48;16.70;;;24.80;99.90;;;;;;5108936;27;20086;-52
2022/06/30 07:00:26;;;;;;;9.05;8.15;;;25.00;99.90;;;;;;5141972;27;20123;-54
2022/06/30 07:02:52;;;;;;;7.35;6.25;;;25.00;99.90;;;;;;5129179;27;20118;-53
2022/06/30 07:05:19;;;;;;;12.68;11.35;;;25.20;99.90;;;;;;5130463;27;20140;-54
2022/06/30 07:07:45;;;;;;;13.77;12.43;;;25.30;99.90;;;;;;5096709;27;20051;-56
2022/06/30 07:10:11;;;;;;;8.85;8.02;;;25.40;99.90;;;;;;5102785;27;20043;-55
2022/06/30 07:12:38;;;;;;;9.45;7.25;;;25.50;99.90;;;;;;5113858;27;20050;-57
2022/06/30 07:15:05;;;;;;;9.05;8.15;;;25.40;99.90;;;;;;5131296;27;20053;-57
2022/06/30 07:17:36;;;;;;;11.43;8.52;;;25.70;99.90;;;;;;5116682;27;20065;-56
2022/06/30 07:20:02;;;;;;;;;;;25.50;99.90;;;;;;5124680;27;20051;-56
2022/06/30 07:22:28;;;;;;;7.25;6.55;;;25.60;99.90;;;;;;5119112;27;20334;-56
2022/06/30 07:24:54;;;;;;;8.77;6.05;;;25.80;99.90;;;;;;5120960;27;20926;-49
2022/06/30 07:27:20;;;;;;;11.00;9.48;;;25.80;99.90;;;;;;5116704;27;20493;-56
2022/06/30 07:29:47;;;;;;;10.40;9.27;;;26.00;99.90;;;;;;5139031;27;20486;-51
2022/06/30 07:32:14;;;;;;;22.17;20.13;;;26.10;99.90;;;;;;5136178;27;20031;-53
2022/06/30 07:34:41;;;;;;;15.82;14.18;;;26.30;99.90;;;;;;5137023;27;20043;-53
2022/06/30 07:37:07;;;;;;;10.48;7.43;;;26.30;99.90;;;;;;5115921;27;20054;-53
2022/06/30 07:39:33;;;;;;;7.50;6.70;;;26.50;99.90;;;;;;5131521;27;20104;-49
2022/06/30 07:41:59;;;;;;;6.95;6.25;;;26.50;99.90;;;;;;5130300;27;20083;-54
2022/06/30 07:44:25;;;;;;;10.45;7.72;;;27.00;99.90;;;;;;5111808;27;20394;-52
2022/06/30 07:46:51;;;;;;;8.13;7.38;;;26.90;99.90;;;;;;5134331;27;20492;-52
2022/06/30 07:49:18;;;;;;;6.70;6.07;;;27.00;99.90;;;;;;5103847;27;20401;-54
2022/06/30 07:51:44;;;;;;;8.18;6.25;;;27.20;99.90;;;;;;5140056;27;20043;-53
2022/06/30 07:54:10;;;;;;;9.38;7.53;;;27.40;99.90;;;;;;5138607;27;20085;-52
2022/06/30 07:56:36;;;;;;;8.38;6.88;;;27.40;99.90;;;;;;5118507;27;20054;-52
2022/06/30 07:59:02;;;;;;;7.88;7.18;;;27.30;99.90;;;;;;5115867;27;20031;-52
2022/06/30 08:01:29;;;;;;;57.38;52.17;;;27.30;99.90;;;;;;5116503;27;20493;-45
2022/06/30 08:03:55;;;;;;;13.50;12.15;;;27.40;99.90;;;;;;5139081;27;20390;-52
2022/06/30 08:06:22;;;;;;;17.88;16.15;;;27.50;99.90;;;;;;5135897;27;20575;-50
2022/06/30 08:08:48;;;;;;;8.07;7.25;;;27.80;99.90;;;;;;5121009;27;20051;-52
2022/06/30 08:11:14;;;;;;;8.73;6.90;;;28.00;99.90;;;;;;5106675;27;20133;-51
2022/06/30 08:13:41;;;;;;;9.18;8.27;;;28.20;99.90;;;;;;5144300;27;20130;-53
2022/06/30 08:16:07;;;;;;;15.27;13.73;;;28.10;99.90;;;;;;5093898;27;20615;-53
2022/06/30 08:18:33;;;;;;;8.18;7.30;;;28.10;99.90;;;;;;5086675;27;20561;-54
2022/06/30 08:20:59;;;;;;;7.80;7.05;;;28.10;99.90;;;;;;5100837;27;20047;-53
2022/06/30 08:23:25;;;;;;;13.27;11.93;;;28.30;99.90;;;;;;5107170;27;20057;-56
2022/06/30 08:25:51;;;;;;;11.35;9.80;;;28.30;99.90;;;;;;5074491;28;20051;-55
2022/06/30 08:28:18;;;;;;;8.27;7.47;;;28.60;99.90;;;;;;5089918;27;20265;-51
2022/06/30 08:30:44;;;;;;;11.77;10.60;;;28.80;99.90;;;;;;5096319;27;20051;-53
2022/06/30 08:33:11;;;;;;;9.85;9.00;;;29.00;99.90;;;;;;5076848;28;20044;-54
2022/06/30 08:35:37;;;;;;;10.73;9.75;;;29.00;99.90;;;;;;5096388;27;20039;-53
2022/06/30 08:38:03;;;;;;;12.82;11.60;;;29.00;99.90;;;;;;5100952;27;20044;-53
2022/06/30 08:43:14;;;;;;;11.40;10.40;;;29.20;99.90;;;;;;5100689;27;20060;-50
2022/06/30 08:45:42;;;;;;;11.80;10.55;;;29.30;99.90;;;;;;5099505;27;20040;-53
2022/06/30 08:48:12;;;;;;;9.70;8.73;;;29.30;99.90;;;;;;5094054;27;20549;-53
2022/06/30 08:50:42;;;;;;;10.90;9.90;;;29.60;99.90;;;;;;5107154;27;20440;-50
2022/06/30 08:53:10;;;;;;;9.65;8.75;;;29.80;99.90;;;;;;5095522;27;20050;-53
2022/06/30 08:55:37;;;;;;;13.80;12.60;;;29.80;99.90;;;;;;5097260;27;20051;-56
2022/06/30 08:58:04;;;;;;;11.13;10.13;;;29.90;99.90;;;;;;5070956;27;20081;-53
2022/06/30 09:00:31;;;;;;;10.70;9.82;;;29.90;99.90;;;;;;5094847;27;20050;-52
2022/06/30 09:02:57;;;;;;;11.30;10.32;;;30.10;99.90;;;;;;5102095;27;20100;-51
2022/06/30 09:05:23;;;;;;;13.38;10.20;;;30.20;99.90;;;;;;5098325;27;20047;-57
2022/06/30 09:07:50;;;;;;;10.40;9.45;;;30.30;99.90;;;;;;5103825;27;20493;-54
2022/06/30 09:10:16;;;;;;;13.60;12.38;;;30.30;99.90;;;;;;5093354;27;20121;-53
2022/06/30 09:13:00;;;;;;;11.82;10.63;;;30.40;99.90;;;;;;5084610;27;20040;-54
2022/06/30 09:15:30;;;;;;;14.93;13.65;;;30.60;99.90;;;;;;5081160;28;20055;-53
2022/06/30 09:17:58;;;;;;;10.75;9.85;;;30.80;99.90;;;;;;5088605;27;20079;-54
2022/06/30 09:20:36;;;;;;;10.82;9.77;;;30.90;99.90;;;;;;5091869;27;20054;-52
2022/06/30 09:23:21;;;;;;;12.07;10.90;;;31.20;99.90;;;;;;5096278;27;20051;-55
2022/06/30 09:25:49;;;;;;;12.10;10.98;;;31.40;99.90;;;;;;5096984;27;20044;-54
2022/06/30 09:28:36;;;;;;;9.80;9.00;;;31.60;99.90;;;;;;5090209;27;20059;-54
2022/06/30 09:31:30;;;;;;;10.50;9.40;;;31.80;99.90;;;;;;5097397;27;20450;-56
2022/06/30 09:33:56;;;;;;;12.57;11.38;;;31.90;99.10;;;;;;5089571;27;20757;-55
2022/06/30 09:36:27;;;;;;;12.30;11.30;;;31.90;99.60;;;;;;5098576;27;20052;-55
2022/06/30 09:39:06;;;;;;;10.70;9.80;;;31.90;98.80;;;;;;5094660;27;20057;-54
2022/06/30 09:41:44;;;;;;;10.30;9.27;;;32.00;98.60;;;;;;5065726;27;20048;-51
2022/06/30 09:44:16;;;;;;;10.40;9.40;;;31.40;98.10;;;;;;5096391;27;20454;-52
2022/06/30 09:46:57;;;;;;;9.65;8.73;;;31.80;99.30;;;;;;5104683;27;20042;-51
2022/06/30 09:49:39;;;;;;;18.35;16.60;;;32.40;99.90;;;;;;5084658;27;20047;-51
2022/06/30 09:52:23;;;;;;;8.52;7.72;;;32.70;98.50;;;;;;5095752;27;20048;-53
2022/06/30 09:55:00;;;;;;;9.20;7.25;;;32.60;96.60;;;;;;5094684;27;20055;-53
2022/06/30 09:57:38;;;;;;;7.68;6.88;;;32.60;92.00;;;;;;5093025;27;20279;-51
2022/06/30 10:00:07;;;;;;;16.63;15.13;;;32.80;92.80;;;;;;5090422;27;20376;-53
2022/06/30 10:02:48;;;;;;;11.15;8.75;;;32.60;92.10;;;;;;5095447;27;20047;-55
2022/06/30 10:05:17;;;;;;;11.10;10.05;;;32.90;91.20;;;;;;5101305;27;20051;-56
2022/06/30 10:07:45;;;;;;;11.15;10.13;;;32.90;88.30;;;;;;5098211;27;20043;-51
2022/06/30 10:10:14;;;;;;;9.48;8.57;;;32.90;88.90;;;;;;5105790;27;20044;-52
2022/06/30 10:12:45;;;;;;;20.85;18.88;;;32.90;83.90;;;;;;5098730;27;20505;-53
2022/06/30 10:15:11;;;;;;;;;;;33.00;85.90;;;;;;5106618;27;20043;-56
2022/06/30 10:17:43;;;;;;;9.15;8.30;;;32.80;90.20;;;;;;5131605;27;20358;-56
2022/06/30 10:20:11;;;;;;;8.68;7.40;;;33.10;81.40;;;;;;5105272;27;20088;-55
2022/06/30 10:22:39;;;;;;;9.88;8.70;;;33.00;88.40;;;;;;5102222;27;20515;-54
2022/06/30 10:25:06;;;;;;;29.08;26.63;;;33.30;81.60;;;;;;5127855;27;22277;-54
2022/06/30 10:27:32;;;;;;;34.80;31.88;;;33.20;84.90;;;;;;5134383;27;20035;-57
2022/06/30 10:30:10;;;;;;;10.13;8.30;;;33.10;85.50;;;;;;5120179;27;20394;-56
2022/06/30 10:33:00;;;;;;;20.45;18.70;;;33.40;80.80;;;;;;5109345;27;20043;-56
2022/06/30 10:35:46;;;;;;;9.98;8.98;;;33.70;80.10;;;;;;5119861;27;20383;-54
2022/06/30 10:38:25;;;;;;;9.48;8.50;;;33.60;77.60;;;;;;5136493;27;20052;-54
2022/06/30 10:41:12;;;;;;;9.77;8.82;;;33.60;77.40;;;;;;5117450;27;20297;-54
2022/06/30 10:44:03;;;;;;;9.70;8.48;;;33.40;72.00;;;;;;5116882;27;20520;-60
2022/06/30 10:46:56;;;;;;;10.45;9.35;;;32.50;73.80;;;;;;5098354;27;20046;-58
2022/06/30 10:49:27;;;;;;;10.10;9.10;;;32.30;78.30;;;;;;5137820;27;20053;-56
2022/06/30 10:52:17;;;;;;;9.30;8.40;;;32.70;76.60;;;;;;5114886;27;20129;-57
2022/06/30 10:54:47;;;;;;;10.77;9.05;;;33.10;80.50;;;;;;5134593;27;20548;-56
2022/06/30 10:57:13;;;;;;;9.30;7.03;;;32.80;77.70;;;;;;5102676;27;20439;-57
2022/06/30 10:59:43;;;;;;;6.88;6.00;;;32.70;80.40;;;;;;5136779;27;20067;-59
2022/06/30 11:02:15;;;;;;;;;;;33.10;75.40;;;;;;5092330;27;20043;-56
2022/06/30 11:05:11;;;;;;;5.95;5.38;;;33.50;77.20;;;;;;5116760;27;19933;-55
2022/06/30 11:07:37;;;;;;;9.65;5.20;;;33.60;76.10;;;;;;5124751;27;20042;-54
2022/06/30 11:10:04;;;;;;;7.35;4.88;;;32.80;73.10;;;;;;5101527;27;20130;-55
2022/06/30 11:12:36;;;;;;;5.05;4.05;;;32.30;71.10;;;;;;5120852;27;20081;-55
2022/06/30 11:15:03;;;;;;;5.95;3.50;;;31.90;70.10;;;;;;5122909;27;20042;-57
2022/06/30 11:17:31;;;;;;;6.22;3.70;;;31.70;75.90;;;;;;5143927;27;20059;-56
2022/06/30 11:20:04;;;;;;;6.53;5.22;;;32.50;78.00;;;;;;5138313;27;20099;-56
2022/06/30 11:22:31;;;;;;;11.05;6.13;;;32.80;75.40;;;;;;5134362;27;20121;-52
2022/06/30 11:25:02;;;;;;;7.72;5.38;;;33.00;74.30;;;;;;5153088;27;20043;-52
2022/06/30 11:27:31;;;;;;;6.28;4.00;;;33.60;75.60;;;;;;5137422;27;20039;-53
2022/06/30 11:30:00;;;;;;;7.53;6.53;;;33.30;70.80;;;;;;5133609;27;21621;-60
2022/06/30 11:32:26;;;;;;;7.60;6.15;;;32.90;69.50;;;;;;5086144;27;20122;-56
2022/06/30 11:35:11;;;;;;;5.88;5.25;;;33.00;71.70;;;;;;5135330;27;20133;-56
2022/06/30 11:37:37;;;;;;;7.88;5.25;;;33.20;71.60;;;;;;5117488;27;20108;-56
2022/06/30 11:40:06;;;;;;;6.55;4.60;;;33.60;71.00;;;;;;5122179;27;20054;-58
2022/06/30 11:42:33;;;;;;;21.73;19.75;;;33.60;69.50;;;;;;5126328;27;20046;-56
2022/06/30 11:44:59;;;;;;;8.60;6.65;;;34.00;66.50;;;;;;5127615;27;20497;-55
2022/06/30 11:47:28;;;;;;;6.72;5.15;;;34.10;62.20;;;;;;5133045;27;20126;-56
2022/06/30 11:49:59;;;;;;;7.88;7.03;;;34.30;62.10;;;;;;5116019;27;20047;-52
2022/06/30 11:52:28;;;;;;;9.13;5.60;;;34.50;62.10;;;;;;5101156;27;20518;-50
2022/06/30 11:55:03;;;;;;;8.70;7.00;;;34.30;63.10;;;;;;5100327;27;20416;-58
2022/06/30 11:57:38;;;;;;;12.63;11.27;;;34.50;59.80;;;;;;5132048;27;20042;-56
2022/06/30 12:00:07;;;;;;;7.55;5.07;;;34.50;61.40;;;;;;5135084;27;20050;-57
2022/06/30 12:02:35;;;;;;;6.80;4.35;;;34.30;57.70;;;;;;5112078;27;20544;-55
2022/06/30 12:05:04;;;;;;;8.15;5.00;;;34.20;55.40;;;;;;5127739;27;20146;-58
2022/06/30 12:07:32;;;;;;;8.07;4.22;;;34.10;56.10;;;;;;5100745;27;20038;-55
2022/06/30 12:09:58;;;;;;;100.68;90.97;;;34.30;56.20;;;;;;5141482;27;20125;-53
2022/06/30 12:12:28;;;;;;;10.85;9.10;;;34.30;54.50;;;;;;5141335;27;20130;-50
2022/06/30 12:15:03;;;;;;;10.27;4.22;;;34.60;52.60;;;;;;5130102;27;20063;-55
2022/06/30 12:17:38;;;;;;;8.18;4.90;;;34.40;53.10;;;;;;5139133;27;20034;-55
2022/06/30 12:20:06;;;;;;;8.05;6.28;;;34.20;50.90;;;;;;5145848;27;20062;-53
2022/06/30 12:22:33;;;;;;;8.27;5.07;;;34.80;49.80;;;;;;5115032;27;20077;-54
2022/06/30 12:25:00;;;;;;;8.55;5.88;;;35.00;50.00;;;;;;5109323;27;20081;-54
2022/06/30 12:27:31;;;;;;;6.47;4.13;;;34.90;50.70;;;;;;5136764;27;20034;-52
2022/06/30 12:30:04;;;;;;;6.65;4.63;;;34.80;49.80;;;;;;5137517;27;20051;-56
2022/06/30 12:32:30;;;;;;;6.43;4.45;;;35.00;49.30;;;;;;5119914;27;20091;-56
2022/06/30 12:34:59;;;;;;;5.88;3.28;;;34.90;49.30;;;;;;5116174;27;20702;-53
2022/06/30 12:37:29;;;;;;;5.53;3.20;;;35.00;48.40;;;;;;5116800;27;20094;-54
2022/06/30 12:39:57;;;;;;;5.45;2.97;;;34.90;47.80;;;;;;5099132;27;20141;-55
2022/06/30 12:42:24;;;;;;;6.82;4.95;;;34.60;47.10;;;;;;5138720;27;20095;-54
2022/06/30 12:44:50;;;;;;;7.15;4.55;;;34.70;47.70;;;;;;5138042;27;20506;-56
2022/06/30 12:47:16;;;;;;;33.75;30.48;;;34.60;47.40;;;;;;5119136;27;20055;-54
2022/06/30 12:49:42;;;;;;;18.92;17.20;;;34.60;46.60;;;;;;5098206;27;20549;-52
2022/06/30 12:52:18;;;;;;;6.68;2.70;;;34.20;47.00;;;;;;5134597;27;20046;-53
2022/06/30 12:54:53;;;;;;;7.05;2.40;;;33.90;48.40;;;;;;5115958;27;20042;-53
2022/06/30 12:57:20;;;;;;;4.43;2.35;;;33.60;49.00;;;;;;5120537;27;20617;-53
2022/06/30 12:59:50;;;;;;;8.20;6.72;;;33.30;49.20;;;;;;5143405;27;20484;-55
2022/06/30 13:02:17;;;;;;;7.43;5.35;;;33.20;48.60;;;;;;5118717;27;20039;-48
2022/06/30 13:04:52;;;;;;;7.70;2.85;;;33.20;49.00;;;;;;5136257;27;21614;-52
2022/06/30 13:07:21;;;;;;;8.80;6.20;;;33.40;50.80;;;;;;5118795;27;20764;-54